Terminal Aerodrome Forecast
Issued by NWS Mt. Holly, NJ

Home | Current Version | Previous Version | Text Only | Print | Product List | Glossary On
Versions: 1 2 3 4 5 6 7 8 9 10 11 12 13 14 15
000
FTAK31 PANC 192320
TAFABE
TAF
PABE 192320Z 2000/2024 21005KT P6SM VCFG SCT002
      TEMPO 2000/2004 3SM BR
     FM201200 27005KT 2SM BR SCT002=

USA.gov is the U.S. government's official web portal to all federal, state and local government web resources and services.